createdAt,value
2018-12-17T00:00:37.584Z,1.74
2018-12-17T00:01:37.581Z,1.67
2018-12-17T00:02:37.536Z,1.66
2018-12-17T00:03:37.520Z,1.67
2018-12-17T00:04:37.510Z,1.59
2018-12-17T00:05:41.798Z,1.59
2018-12-17T00:06:37.487Z,1.71
2018-12-17T00:07:37.695Z,1.53
2018-12-17T00:08:37.469Z,1.46
2018-12-17T00:09:37.487Z,1.49
2018-12-17T00:10:37.446Z,1.52
2018-12-17T00:11:37.470Z,1.45
2018-12-17T00:12:37.429Z,1.34
2018-12-17T00:13:37.414Z,1.39
2018-12-17T00:14:37.431Z,1.41
2018-12-17T00:15:37.422Z,1.44
2018-12-17T00:16:37.381Z,1.46
2018-12-17T00:17:37.367Z,1.46
2018-12-17T00:18:37.358Z,1.41
2018-12-17T00:19:37.346Z,1.45
2018-12-17T00:20:37.336Z,1.48
2018-12-17T00:21:37.386Z,1.46
2018-12-17T00:22:37.315Z,1.39
2018-12-17T00:23:37.303Z,1.35
2018-12-17T00:24:37.293Z,1.34
2018-12-17T00:25:37.282Z,1.34
2018-12-17T00:26:37.274Z,1.34
2018-12-17T00:27:37.289Z,1.28
2018-12-17T00:28:37.251Z,1.23
2018-12-17T00:29:37.241Z,1.20
2018-12-17T00:30:37.230Z,1.28
2018-12-17T00:31:37.217Z,1.18
2018-12-17T00:32:37.205Z,1.16
2018-12-17T00:33:37.226Z,1.03
2018-12-17T00:34:37.191Z,1.16
2018-12-17T00:35:37.174Z,1.06
2018-12-17T00:36:37.161Z,1.17
2018-12-17T00:37:37.152Z,1.13
2018-12-17T00:38:37.142Z,1.03
2018-12-17T00:39:37.175Z,1.05
2018-12-17T00:40:37.121Z,1.13
2018-12-17T00:41:37.110Z,1.06
2018-12-17T00:42:37.105Z,1.16
2018-12-17T00:43:37.090Z,1.17
2018-12-17T00:44:37.077Z,1.12
2018-12-17T00:45:37.098Z,1.16
2018-12-17T00:46:37.052Z,1.12
2018-12-17T00:47:37.045Z,1.10
2018-12-17T00:48:37.031Z,1.16
2018-12-17T00:49:37.022Z,1.10
2018-12-17T00:50:37.010Z,1.12
2018-12-17T00:51:37.029Z,1.06
2018-12-17T00:52:36.989Z,1.24
2018-12-17T00:53:36.976Z,1.21
2018-12-17T00:54:36.970Z,1.30
2018-12-17T00:55:36.955Z,1.28
2018-12-17T00:56:36.946Z,1.44
2018-12-17T00:57:36.997Z,1.41
2018-12-17T00:58:36.925Z,1.41
2018-12-17T00:59:36.921Z,1.34
2018-12-17T01:00:36.902Z,1.44
2018-12-17T01:01:36.892Z,1.44
2018-12-17T01:02:36.879Z,1.44
2018-12-17T01:03:36.901Z,1.45
2018-12-17T01:04:36.858Z,1.45
2018-12-17T01:05:36.848Z,1.48
2018-12-17T01:06:36.865Z,1.49
2018-12-17T01:07:36.826Z,1.44
2018-12-17T01:08:36.817Z,1.53
2018-12-17T01:09:36.822Z,1.46
2018-12-17T01:10:36.797Z,1.42
2018-12-17T01:11:36.812Z,1.48
2018-12-17T01:12:36.773Z,1.46
2018-12-17T01:13:36.760Z,1.49
2018-12-17T01:14:36.750Z,1.57
2018-12-17T01:15:36.738Z,1.55
2018-12-17T01:16:36.764Z,1.46
2018-12-17T01:17:36.715Z,1.48
2018-12-17T01:18:36.713Z,1.49
2018-12-17T01:19:36.694Z,1.46
2018-12-17T01:20:36.714Z,1.45
2018-12-17T01:21:36.676Z,1.53
2018-12-17T01:22:36.708Z,1.53
2018-12-17T01:23:36.652Z,1.49
2018-12-17T01:24:36.643Z,1.46
2018-12-17T01:25:36.630Z,1.42
2018-12-17T01:26:36.619Z,1.52
2018-12-17T01:27:36.608Z,1.46
2018-12-17T01:28:36.630Z,1.45
2018-12-17T01:29:36.585Z,1.44
2018-12-17T01:30:36.576Z,1.55
2018-12-17T01:31:36.568Z,1.52
2018-12-17T01:32:36.554Z,1.52
2018-12-17T01:33:36.542Z,1.52
2018-12-17T01:34:36.563Z,1.46
2018-12-17T01:35:36.523Z,1.45
2018-12-17T01:36:36.511Z,1.46
2018-12-17T01:37:36.499Z,1.34
2018-12-17T01:38:36.488Z,1.36
2018-12-17T01:39:36.479Z,1.31
2018-12-17T01:40:36.674Z,1.34
2018-12-17T01:41:36.461Z,1.45
2018-12-17T01:42:36.444Z,1.34
2018-12-17T01:43:36.433Z,1.48
2018-12-17T01:44:36.458Z,1.45
2018-12-17T01:45:36.416Z,1.46
2018-12-17T01:46:36.404Z,1.38
2018-12-17T01:47:36.390Z,1.39
2018-12-17T01:48:36.383Z,1.44
2018-12-17T01:49:36.399Z,1.41
2018-12-17T01:50:36.360Z,1.42
2018-12-17T01:51:36.352Z,1.41
2018-12-17T01:52:36.335Z,1.44
2018-12-17T01:53:36.326Z,1.42
2018-12-17T01:54:36.317Z,1.48
2018-12-17T01:55:36.334Z,1.36
2018-12-17T01:56:36.292Z,1.39
2018-12-17T01:57:36.308Z,1.35
2018-12-17T01:58:36.271Z,1.38
2018-12-17T01:59:36.262Z,1.41
2018-12-17T02:00:36.250Z,1.36
2018-12-17T02:01:36.269Z,1.36
2018-12-17T02:02:36.226Z,1.42
2018-12-17T02:03:36.217Z,1.27
2018-12-17T02:04:36.207Z,1.31
2018-12-17T02:05:36.195Z,1.28
2018-12-17T02:06:36.184Z,1.20
2018-12-17T02:07:36.203Z,1.16
2018-12-17T02:08:36.176Z,1.21
2018-12-17T02:09:36.418Z,1.16
2018-12-17T02:10:36.142Z,1.17
2018-12-17T02:11:36.131Z,1.16
2018-12-17T02:12:36.119Z,1.24
2018-12-17T02:13:36.109Z,1.27
2018-12-17T02:14:36.099Z,1.20
2018-12-17T02:15:36.116Z,1.30
2018-12-17T02:16:36.076Z,1.30
2018-12-17T02:17:36.064Z,1.34
2018-12-17T02:18:36.056Z,1.27
2018-12-17T02:19:36.044Z,1.41
2018-12-17T02:20:36.034Z,1.44
2018-12-17T02:21:36.053Z,1.39
2018-12-17T02:22:36.011Z,1.38
2018-12-17T02:23:36.003Z,1.44
2018-12-17T02:24:35.988Z,1.36
2018-12-17T02:25:35.977Z,1.44
2018-12-17T02:26:35.967Z,1.46
2018-12-17T02:27:35.986Z,1.48
2018-12-17T02:28:36.379Z,1.55
2018-12-17T02:29:35.933Z,1.63
2018-12-17T02:30:35.923Z,1.64
2018-12-17T02:31:35.911Z,1.80
2018-12-17T02:32:35.904Z,1.84
2018-12-17T02:33:35.921Z,1.93
2018-12-17T02:34:35.916Z,1.97
2018-12-17T02:35:35.870Z,2.04
2018-12-17T02:36:35.891Z,2.14
2018-12-17T02:37:35.852Z,2.14
2018-12-17T02:38:35.835Z,2.11
2018-12-17T02:39:35.824Z,2.25
2018-12-17T02:40:35.813Z,2.32
2018-12-17T02:41:35.832Z,2.45
2018-12-17T02:42:35.796Z,2.60
2018-12-17T02:43:35.812Z,2.68
2018-12-17T02:44:35.770Z,2.73
2018-12-17T02:45:35.761Z,2.81
2018-12-17T02:46:35.750Z,2.84
2018-12-17T02:47:35.740Z,2.87
2018-12-17T02:48:35.764Z,2.97
2018-12-17T02:49:35.716Z,3.09
2018-12-17T02:50:35.707Z,3.17
2018-12-17T02:51:35.724Z,3.14
2018-12-17T02:52:35.711Z,3.25
2018-12-17T02:53:35.670Z,3.32
2018-12-17T02:54:35.933Z,3.32
2018-12-17T02:55:35.653Z,3.32
2018-12-17T02:56:35.643Z,3.29
2018-12-17T02:57:35.628Z,3.45
2018-12-17T02:58:35.617Z,3.41
2018-12-17T02:59:35.607Z,3.37
2018-12-17T03:00:35.649Z,3.33
2018-12-17T03:01:35.585Z,3.35
2018-12-17T03:02:35.577Z,3.44
2018-12-17T03:03:35.563Z,3.42
2018-12-17T03:04:35.551Z,3.42
2018-12-17T03:05:35.544Z,3.42
2018-12-17T03:06:35.578Z,3.45
2018-12-17T03:07:35.519Z,3.37
2018-12-17T03:08:35.574Z,3.37
2018-12-17T03:09:35.499Z,3.32
2018-12-17T03:10:35.489Z,3.46
2018-12-17T03:11:35.516Z,3.30
2018-12-17T03:12:35.464Z,3.36
2018-12-17T03:13:35.566Z,3.36
2018-12-17T03:14:35.446Z,3.41
2018-12-17T03:15:35.433Z,3.22
2018-12-17T03:16:35.422Z,3.17
2018-12-17T03:17:35.411Z,3.33
2018-12-17T03:18:35.400Z,3.26
2018-12-17T03:19:35.449Z,3.25
2018-12-17T03:20:35.377Z,3.08
2018-12-17T03:21:35.368Z,3.14
2018-12-17T03:22:35.376Z,3.17
2018-12-17T03:23:35.347Z,3.09
2018-12-17T03:24:35.337Z,3.12
2018-12-17T03:25:35.372Z,2.94
2018-12-17T03:26:35.314Z,2.96
2018-12-17T03:27:35.301Z,3.00
2018-12-17T03:28:35.293Z,3.02
2018-12-17T03:29:35.287Z,3.00
2018-12-17T03:30:35.311Z,3.09
2018-12-17T03:31:35.259Z,3.07
2018-12-17T03:32:35.250Z,2.97
2018-12-17T03:33:35.236Z,3.02
2018-12-17T03:34:35.226Z,2.94
2018-12-17T03:35:35.215Z,3.02
2018-12-17T03:36:35.252Z,3.14
2018-12-17T03:37:35.194Z,3.09
2018-12-17T03:38:35.186Z,3.26
2018-12-17T03:39:35.218Z,3.32
2018-12-17T03:40:35.162Z,3.36
2018-12-17T03:41:35.150Z,3.49
2018-12-17T03:42:35.186Z,3.60
2018-12-17T03:43:35.176Z,3.55
2018-12-17T03:44:35.117Z,3.72
2018-12-17T03:45:35.108Z,3.66
2018-12-17T03:46:35.095Z,3.74
2018-12-17T03:47:35.086Z,3.80
2018-12-17T03:48:35.076Z,3.84
2018-12-17T03:49:35.126Z,3.82
2018-12-17T03:50:35.060Z,3.81
2018-12-17T03:51:35.042Z,3.67
2018-12-17T03:52:35.034Z,3.76
2018-12-17T03:53:35.018Z,3.74
2018-12-17T03:54:35.009Z,3.78
2018-12-17T03:55:35.047Z,3.73
2018-12-17T03:56:34.990Z,3.73
2018-12-17T03:57:34.975Z,3.73
2018-12-17T03:58:34.965Z,3.69
2018-12-17T03:59:34.954Z,3.72
2018-12-17T04:00:34.946Z,3.85
2018-12-17T04:01:34.980Z,3.80
2018-12-17T04:02:34.960Z,3.81
2018-12-17T04:03:34.909Z,3.84
2018-12-17T04:04:34.900Z,3.87
2018-12-17T04:05:34.937Z,3.72
2018-12-17T04:06:34.877Z,3.64
2018-12-17T04:07:34.911Z,3.80
2018-12-17T04:08:34.855Z,3.78
2018-12-17T04:09:34.846Z,3.73
2018-12-17T04:10:34.834Z,3.72
2018-12-17T04:11:34.824Z,3.69
2018-12-17T04:12:34.812Z,3.73
2018-12-17T04:13:34.845Z,3.82
2018-12-17T04:14:34.791Z,3.80
2018-12-17T04:15:34.781Z,3.80
2018-12-17T04:16:34.779Z,3.78
2018-12-17T04:17:34.757Z,3.87
2018-12-17T04:18:34.747Z,3.87
2018-12-17T04:19:34.778Z,3.91
2018-12-17T04:20:34.729Z,3.88
2018-12-17T04:21:34.714Z,3.91
2018-12-17T04:22:34.704Z,3.90
2018-12-17T04:23:34.693Z,3.99
2018-12-17T04:24:34.682Z,3.98
2018-12-17T04:25:34.720Z,3.96
2018-12-17T04:26:34.660Z,3.94
2018-12-17T04:27:34.689Z,3.90
2018-12-17T04:28:34.639Z,3.91
2018-12-17T04:29:34.626Z,3.99
2018-12-17T04:30:34.621Z,3.96
2018-12-17T04:31:34.606Z,3.98
2018-12-17T04:32:34.596Z,3.99
2018-12-17T04:33:34.622Z,3.98
2018-12-17T04:34:34.576Z,4.03
2018-12-17T04:35:34.563Z,4.02
2018-12-17T04:36:34.554Z,4.09
2018-12-17T04:37:34.580Z,4.08
2018-12-17T04:38:34.541Z,4.13
2018-12-17T04:39:34.520Z,4.12
2018-12-17T04:40:34.549Z,4.13
2018-12-17T04:41:34.497Z,4.09
2018-12-17T04:42:34.487Z,4.09
2018-12-17T04:43:34.478Z,4.17
2018-12-17T04:44:34.464Z,4.24
2018-12-17T04:45:34.454Z,4.27
2018-12-17T04:46:34.485Z,4.20
2018-12-17T04:47:34.432Z,4.26
2018-12-17T04:48:34.472Z,4.26
2018-12-17T04:49:34.410Z,4.24
2018-12-17T04:50:34.449Z,4.26
2018-12-17T04:51:34.391Z,4.20
2018-12-17T04:52:34.381Z,4.21
2018-12-17T04:53:34.417Z,4.24
2018-12-17T04:54:34.362Z,4.30
2018-12-17T04:55:34.344Z,4.18
2018-12-17T04:56:34.335Z,4.30
2018-12-17T04:57:34.367Z,4.27
2018-12-17T04:58:34.314Z,4.17
2018-12-17T04:59:34.302Z,4.16
2018-12-17T05:00:34.290Z,4.24
2018-12-17T05:01:34.282Z,4.24
2018-12-17T05:02:34.271Z,4.20
2018-12-17T05:03:34.304Z,4.24
2018-12-17T05:04:34.246Z,4.35
2018-12-17T05:05:34.284Z,4.35
2018-12-17T05:06:34.228Z,4.38
2018-12-17T05:07:34.213Z,4.38
2018-12-17T05:08:34.229Z,4.34
2018-12-17T05:09:34.196Z,4.24
2018-12-17T05:10:34.224Z,4.26
2018-12-17T05:11:34.171Z,4.21
2018-12-17T05:12:34.160Z,4.31
2018-12-17T05:13:34.151Z,4.31
2018-12-17T05:14:34.139Z,4.34
2018-12-17T05:15:34.130Z,4.23
2018-12-17T05:16:34.159Z,4.36
2018-12-17T05:17:34.105Z,4.38
2018-12-17T05:18:34.097Z,4.34
2018-12-17T05:19:34.086Z,4.46
2018-12-17T05:20:34.122Z,4.46
2018-12-17T05:21:34.062Z,4.51
2018-12-17T05:22:34.056Z,4.53
2018-12-17T05:23:34.050Z,4.57
2018-12-17T05:24:34.036Z,4.61
2018-12-17T05:25:34.019Z,4.54
2018-12-17T05:26:34.084Z,4.56
2018-12-17T05:27:33.997Z,4.57
2018-12-17T05:28:33.989Z,4.61
2018-12-17T05:29:34.030Z,4.61
2018-12-17T05:30:33.965Z,4.66
2018-12-17T05:31:33.957Z,4.61
2018-12-17T05:32:33.948Z,4.61
2018-12-17T05:33:33.933Z,4.61
2018-12-17T05:34:33.930Z,4.60
2018-12-17T05:35:33.951Z,4.56
2018-12-17T05:36:33.938Z,4.61
2018-12-17T05:37:33.943Z,4.63
2018-12-17T05:38:33.878Z,4.64
2018-12-17T05:39:33.873Z,4.63
2018-12-17T05:40:33.856Z,4.64
2018-12-17T05:41:33.844Z,4.57
2018-12-17T05:42:33.837Z,4.60
2018-12-17T05:43:33.863Z,4.74
2018-12-17T05:44:33.813Z,4.69
2018-12-17T05:45:33.807Z,4.75
2018-12-17T05:46:33.790Z,4.71
2018-12-17T05:47:33.782Z,4.69
2018-12-17T05:48:33.770Z,4.72
2018-12-17T05:49:33.804Z,4.72
2018-12-17T05:50:33.748Z,4.72
2018-12-17T05:51:33.737Z,4.72
2018-12-17T05:52:33.725Z,4.72
2018-12-17T05:53:33.814Z,4.78
2018-12-17T05:54:33.704Z,4.72
2018-12-17T05:55:33.694Z,4.75
2018-12-17T05:56:33.682Z,4.78
2018-12-17T05:57:33.672Z,4.88
2018-12-17T05:58:33.661Z,4.86
2018-12-17T05:59:33.708Z,4.88
2018-12-17T06:00:33.639Z,4.77
2018-12-17T06:01:33.639Z,4.79
2018-12-17T06:02:33.620Z,4.78
2018-12-17T06:03:33.610Z,4.71
2018-12-17T06:04:33.597Z,4.75
2018-12-17T06:05:33.639Z,4.85
2018-12-17T06:06:33.575Z,4.89
2018-12-17T06:07:33.569Z,4.89
2018-12-17T06:08:33.563Z,4.91
2018-12-17T06:09:33.553Z,4.89
2018-12-17T06:10:33.545Z,4.88
2018-12-17T06:11:33.565Z,4.86
2018-12-17T06:12:33.509Z,4.83
2018-12-17T06:13:33.500Z,4.82
2018-12-17T06:14:33.498Z,4.82
2018-12-17T06:15:33.479Z,4.85
2018-12-17T06:16:33.465Z,4.91
2018-12-17T06:17:33.664Z,4.94
2018-12-17T06:18:33.454Z,4.85
2018-12-17T06:19:33.435Z,4.86
2018-12-17T06:20:33.429Z,4.85
2018-12-17T06:21:33.674Z,4.91
2018-12-17T06:22:33.456Z,4.79
2018-12-17T06:23:33.450Z,4.93
2018-12-17T06:24:33.393Z,4.86
2018-12-17T06:25:33.378Z,4.79
2018-12-17T06:26:33.359Z,4.93
2018-12-17T06:27:36.789Z,4.98
2018-12-17T06:28:33.339Z,4.91
2018-12-17T06:29:35.672Z,4.94
2018-12-17T06:30:33.365Z,4.96
2018-12-17T06:31:33.318Z,4.82
2018-12-17T06:32:33.295Z,4.88
2018-12-17T06:33:33.299Z,4.83
2018-12-17T06:34:33.276Z,4.85
2018-12-17T06:35:33.316Z,4.96
2018-12-17T06:36:33.254Z,4.96
2018-12-17T06:37:33.303Z,4.88
2018-12-17T06:38:33.239Z,5.04
2018-12-17T06:39:33.219Z,4.96
2018-12-17T06:40:33.207Z,4.97
2018-12-17T06:41:33.197Z,5.07
2018-12-17T06:42:33.209Z,5.11
2018-12-17T06:43:33.214Z,5.12
2018-12-17T06:44:33.249Z,5.07
2018-12-17T06:45:33.159Z,5.07
2018-12-17T06:46:33.144Z,5.11
2018-12-17T06:47:33.138Z,5.12
2018-12-17T06:48:33.163Z,5.07
2018-12-17T06:49:33.116Z,5.06
2018-12-17T06:50:33.105Z,5.03
2018-12-17T06:51:33.094Z,5.04
2018-12-17T06:52:33.080Z,5.01
2018-12-17T06:53:33.095Z,5.03
2018-12-17T06:54:33.114Z,5.12
2018-12-17T06:55:33.043Z,5.09
2018-12-17T06:56:33.039Z,5.12
2018-12-17T06:57:33.038Z,5.06
2018-12-17T06:58:33.028Z,5.24
2018-12-17T06:59:33.004Z,5.22
2018-12-17T07:00:33.041Z,5.15
2018-12-17T07:01:32.997Z,5.12
2018-12-17T07:02:32.973Z,5.04
2018-12-17T07:03:33.008Z,5.15
2018-12-17T07:04:33.007Z,5.22
2018-12-17T07:05:32.941Z,5.11
2018-12-17T07:06:32.945Z,5.12
2018-12-17T07:07:32.977Z,5.15
2018-12-17T07:08:32.907Z,5.07
2018-12-17T07:09:32.898Z,5.03
2018-12-17T07:10:32.925Z,5.11
2018-12-17T07:11:32.875Z,5.04
2018-12-17T07:12:32.890Z,5.09
2018-12-17T07:13:32.891Z,5.04
2018-12-17T07:14:36.442Z,5.09
2018-12-17T07:15:32.839Z,5.04
2018-12-17T07:16:32.821Z,5.12
2018-12-17T07:17:32.922Z,5.12
2018-12-17T07:18:32.807Z,5.04
2018-12-17T07:19:32.784Z,5.16
2018-12-17T07:20:32.821Z,5.16
2018-12-17T07:21:32.769Z,5.09
2018-12-17T07:22:32.762Z,5.06
2018-12-17T07:23:32.752Z,5.16
2018-12-17T07:24:32.734Z,5.12
2018-12-17T07:25:32.826Z,5.12
2018-12-17T07:26:32.723Z,5.06
2018-12-17T07:27:32.700Z,5.09
2018-12-17T07:28:32.706Z,5.14
2018-12-17T07:29:32.731Z,5.07
2018-12-17T07:30:32.716Z,5.07
2018-12-17T07:31:32.756Z,5.07
2018-12-17T07:32:32.700Z,5.00
2018-12-17T07:33:32.640Z,5.00
2018-12-17T07:34:32.638Z,4.94
2018-12-17T07:35:32.613Z,5.01
2018-12-17T07:36:32.608Z,5.06
2018-12-17T07:37:32.648Z,5.07
2018-12-17T07:38:32.585Z,5.06
2018-12-17T07:39:32.607Z,5.11
2018-12-17T07:40:32.561Z,5.00
2018-12-17T07:41:32.552Z,5.03
2018-12-17T07:42:32.558Z,5.07
2018-12-17T07:43:32.578Z,5.07
2018-12-17T07:44:32.615Z,5.06
2018-12-17T07:45:32.525Z,5.09
2018-12-17T07:46:32.510Z,5.11
2018-12-17T07:47:32.498Z,5.01
2018-12-17T07:48:32.480Z,5.14
2018-12-17T07:49:32.463Z,5.11
2018-12-17T07:50:32.493Z,5.21
2018-12-17T07:51:32.469Z,5.25
2018-12-17T07:52:32.441Z,5.27
2018-12-17T07:53:32.420Z,5.25
2018-12-17T07:54:32.410Z,5.19
2018-12-17T07:55:32.496Z,5.06
2018-12-17T07:56:32.396Z,5.11
2018-12-17T07:57:32.440Z,5.15
2018-12-17T07:58:32.378Z,5.16
2018-12-17T07:59:32.361Z,5.16
2018-12-17T08:00:32.347Z,5.07
2018-12-17T08:01:32.334Z,5.18
2018-12-17T08:02:32.323Z,5.16
2018-12-17T08:03:32.386Z,5.06
2018-12-17T08:04:32.350Z,5.06
2018-12-17T08:05:32.404Z,5.15
2018-12-17T08:06:32.306Z,5.12
2018-12-17T08:07:32.295Z,5.12
2018-12-17T08:08:35.449Z,5.14
2018-12-17T08:09:32.263Z,5.04
2018-12-17T08:10:32.235Z,5.07
2018-12-17T08:11:32.279Z,5.22
2018-12-17T08:12:32.224Z,5.22
2018-12-17T08:13:32.214Z,5.22
2018-12-17T08:14:32.244Z,5.11
2018-12-17T08:15:32.184Z,5.11
2018-12-17T08:16:32.175Z,5.09
2018-12-17T08:17:32.163Z,5.15
2018-12-17T08:18:32.259Z,5.14
2018-12-17T08:19:32.142Z,5.14
2018-12-17T08:20:32.178Z,5.16
2018-12-17T08:21:32.174Z,5.12
2018-12-17T08:22:32.107Z,5.12
2018-12-17T08:23:32.104Z,5.14
2018-12-17T08:24:32.369Z,5.12
2018-12-17T08:25:32.075Z,5.06
2018-12-17T08:26:32.064Z,5.11
2018-12-17T08:27:32.066Z,5.22
2018-12-17T08:28:32.044Z,5.24
2018-12-17T08:29:32.043Z,5.15
2018-12-17T08:30:32.147Z,5.18
2018-12-17T08:31:32.011Z,5.22
2018-12-17T08:32:32.006Z,5.22
2018-12-17T08:33:32.013Z,5.25
2018-12-17T08:34:32.007Z,5.24
2018-12-17T08:35:31.990Z,5.22
2018-12-17T08:36:32.005Z,5.18
2018-12-17T08:37:31.987Z,5.24
2018-12-17T08:38:31.951Z,5.29
2018-12-17T08:39:31.934Z,5.19
2018-12-17T08:40:31.961Z,5.14
2018-12-17T08:41:31.966Z,5.15
2018-12-17T08:42:32.004Z,5.22
2018-12-17T08:43:32.009Z,5.14
2018-12-17T08:44:31.881Z,5.18
2018-12-17T08:45:31.901Z,5.29
2018-12-17T08:46:31.903Z,5.29
2018-12-17T08:47:31.838Z,5.37
2018-12-17T08:48:31.829Z,5.32
2018-12-17T08:49:31.899Z,5.39
2018-12-17T08:50:31.834Z,5.33
2018-12-17T08:51:31.801Z,5.51
2018-12-17T08:52:31.842Z,5.47
2018-12-17T08:53:31.795Z,5.48
2018-12-17T08:54:31.829Z,5.48
2018-12-17T08:55:31.810Z,5.51
2018-12-17T08:56:31.748Z,5.57
2018-12-17T08:57:37.812Z,5.52
2018-12-17T08:58:32.731Z,5.57
2018-12-17T08:59:31.709Z,5.44
2018-12-17T09:00:31.805Z,5.48
2018-12-17T09:01:31.696Z,5.47
2018-12-17T09:02:31.710Z,5.48
2018-12-17T09:03:31.734Z,5.52
2018-12-17T09:04:31.662Z,5.62
2018-12-17T09:05:31.786Z,5.55
2018-12-17T09:06:31.888Z,5.66
2018-12-17T09:07:32.079Z,5.72
2018-12-17T09:08:31.640Z,5.77
2018-12-17T09:09:31.606Z,5.72
2018-12-17T09:10:31.596Z,5.70
2018-12-17T09:11:31.623Z,5.75
2018-12-17T09:12:31.861Z,5.77
2018-12-17T09:13:31.561Z,5.84
2018-12-17T09:14:31.558Z,5.84
2018-12-17T09:15:31.591Z,5.70
2018-12-17T09:16:31.538Z,5.79
2018-12-17T09:17:31.589Z,5.82
2018-12-17T09:18:31.532Z,5.84
2018-12-17T09:19:31.524Z,5.84
2018-12-17T09:20:32.131Z,5.84
2018-12-17T09:21:31.569Z,5.90
2018-12-17T09:22:31.501Z,5.88
2018-12-17T09:23:31.528Z,5.95
2018-12-17T09:24:31.441Z,5.98
2018-12-17T09:25:31.464Z,5.94
2018-12-17T09:26:31.425Z,6.08
2018-12-17T09:27:31.452Z,6.11
2018-12-17T09:28:31.405Z,6.15
2018-12-17T09:29:31.460Z,6.12
2018-12-17T09:30:31.397Z,6.16
2018-12-17T09:31:31.367Z,6.21
2018-12-17T09:32:31.374Z,6.27
2018-12-17T09:33:31.374Z,6.18
2018-12-17T09:34:31.420Z,6.13
2018-12-17T09:35:31.393Z,6.24
2018-12-17T09:36:31.428Z,6.19
2018-12-17T09:37:31.326Z,6.27
2018-12-17T09:38:31.328Z,6.18
2018-12-17T09:39:31.286Z,6.18
2018-12-17T09:40:31.408Z,6.37
2018-12-17T09:41:31.577Z,6.30
2018-12-17T09:42:31.252Z,6.28
2018-12-17T09:43:31.236Z,6.40
2018-12-17T09:44:31.247Z,6.34
2018-12-17T09:45:31.211Z,6.37
2018-12-17T09:46:31.220Z,6.34
2018-12-17T09:47:31.313Z,6.32
2018-12-17T09:48:31.182Z,6.32
2018-12-17T09:49:31.320Z,6.40
2018-12-17T09:50:31.196Z,6.43
2018-12-17T09:51:31.184Z,6.32
2018-12-17T09:52:31.295Z,6.38
2018-12-17T09:53:31.135Z,6.37
2018-12-17T09:54:31.210Z,6.31
2018-12-17T09:55:31.119Z,6.27
2018-12-17T09:56:31.153Z,6.30
2018-12-17T09:57:31.084Z,6.27
2018-12-17T09:58:31.182Z,6.21
2018-12-17T09:59:31.084Z,6.21
2018-12-17T10:00:31.221Z,6.30
2018-12-17T10:01:31.065Z,6.16
2018-12-17T10:02:31.048Z,6.16
2018-12-17T10:03:31.112Z,6.19
2018-12-17T10:04:31.044Z,6.11
2018-12-17T10:05:31.008Z,6.05
2018-12-17T10:06:31.073Z,6.16
2018-12-17T10:07:31.048Z,6.19
2018-12-17T10:08:31.016Z,6.24
2018-12-17T10:09:31.031Z,6.31
2018-12-17T10:10:30.979Z,6.43
2018-12-17T10:11:30.950Z,6.31
2018-12-17T10:12:30.944Z,6.32
2018-12-17T10:13:30.908Z,6.43
2018-12-17T10:14:30.961Z,6.46
2018-12-17T10:15:30.940Z,6.38
2018-12-17T10:16:30.891Z,6.35
2018-12-17T10:17:30.978Z,6.50
2018-12-17T10:18:36.667Z,6.52
2018-12-17T10:19:32.146Z,6.53
2018-12-17T10:20:30.836Z,6.49
2018-12-17T10:21:30.962Z,6.46
2018-12-17T10:22:30.851Z,6.42
2018-12-17T10:23:30.910Z,6.46
2018-12-17T10:24:30.790Z,6.49
2018-12-17T10:25:30.894Z,6.53
2018-12-17T10:26:30.842Z,6.49
2018-12-17T10:27:30.755Z,6.49
2018-12-17T10:28:30.801Z,6.63
2018-12-17T10:29:30.739Z,6.53
2018-12-17T10:30:32.707Z,6.52
2018-12-17T10:31:31.189Z,6.60
2018-12-17T10:32:30.788Z,6.67
2018-12-17T10:33:30.705Z,6.70
2018-12-17T10:34:30.679Z,6.65
2018-12-17T10:35:30.737Z,6.75
2018-12-17T10:36:30.680Z,6.74
2018-12-17T10:37:30.795Z,6.65
2018-12-17T10:38:30.705Z,6.65
2018-12-17T10:39:30.652Z,6.65
2018-12-17T10:40:30.628Z,6.74
2018-12-17T10:41:30.657Z,6.71
2018-12-17T10:42:30.697Z,6.83
2018-12-17T10:43:30.631Z,6.78
2018-12-17T10:44:30.578Z,6.92
2018-12-17T10:45:30.601Z,6.97
2018-12-17T10:46:30.660Z,6.97
2018-12-17T10:47:30.547Z,7.03
2018-12-17T10:48:30.599Z,7.00
2018-12-17T10:49:30.535Z,7.00
2018-12-17T10:50:30.587Z,7.03
2018-12-17T10:51:30.513Z,6.88
2018-12-17T10:52:30.494Z,6.92
2018-12-17T10:53:30.479Z,7.00
2018-12-17T10:54:30.470Z,6.92
2018-12-17T10:55:30.463Z,6.92
2018-12-17T10:56:30.508Z,7.03
2018-12-17T10:57:30.507Z,7.11
2018-12-17T10:58:30.433Z,7.15
2018-12-17T10:59:30.452Z,7.16
2018-12-17T11:00:30.464Z,7.25
2018-12-17T11:01:32.462Z,7.31
2018-12-17T11:02:30.415Z,7.21
2018-12-17T11:03:30.389Z,7.29
2018-12-17T11:04:30.365Z,7.25
2018-12-17T11:05:30.534Z,7.34
2018-12-17T11:06:30.789Z,7.34
2018-12-17T11:07:30.643Z,7.43
2018-12-17T11:08:31.713Z,7.46
2018-12-17T11:09:32.103Z,7.58
2018-12-17T11:10:30.576Z,7.50
2018-12-17T11:11:30.426Z,7.57
2018-12-17T11:12:31.594Z,7.61
2018-12-17T11:13:30.258Z,7.61
2018-12-17T11:14:30.245Z,7.54
2018-12-17T11:15:30.263Z,7.47
2018-12-17T11:16:30.229Z,7.43
2018-12-17T11:17:30.215Z,7.49
2018-12-17T11:18:30.359Z,7.55
2018-12-17T11:19:30.353Z,7.58
2018-12-17T11:20:30.303Z,7.64
2018-12-17T11:21:30.168Z,7.57
2018-12-17T11:22:30.180Z,7.61
2018-12-17T11:23:30.434Z,7.69
2018-12-17T11:24:30.149Z,7.77
2018-12-17T11:25:30.117Z,7.91
2018-12-17T11:26:30.110Z,7.96
2018-12-17T11:27:30.159Z,7.98
2018-12-17T11:28:30.088Z,8.06
2018-12-17T11:29:30.212Z,8.05
2018-12-17T11:30:30.075Z,8.09
2018-12-17T11:31:30.133Z,8.13
2018-12-17T11:32:30.071Z,8.23
2018-12-17T11:33:30.030Z,8.21
2018-12-17T11:34:30.050Z,8.21
2018-12-17T11:35:30.056Z,8.31
2018-12-17T11:36:30.018Z,8.44
2018-12-17T11:37:30.045Z,8.50
2018-12-17T11:38:29.992Z,8.55
2018-12-17T11:39:29.999Z,8.57
2018-12-17T11:40:30.143Z,8.52
2018-12-17T11:41:30.056Z,8.57
2018-12-17T11:42:29.973Z,8.65
2018-12-17T11:43:29.972Z,8.70
2018-12-17T11:44:29.957Z,8.83
2018-12-17T11:45:29.974Z,8.72
2018-12-17T11:46:29.973Z,8.74
2018-12-17T11:47:29.879Z,8.71
2018-12-17T11:48:29.939Z,8.78
2018-12-17T11:49:29.961Z,8.83
2018-12-17T11:50:29.922Z,8.88
2018-12-17T11:51:29.898Z,8.88
2018-12-17T11:52:29.849Z,8.99
2018-12-17T11:53:29.855Z,9.12
2018-12-17T11:54:29.795Z,9.27
2018-12-17T11:55:29.935Z,9.22
2018-12-17T11:56:29.777Z,9.36
2018-12-17T11:57:29.798Z,9.47
2018-12-17T11:58:29.793Z,9.45
2018-12-17T11:59:29.745Z,9.45
2018-12-17T12:00:29.740Z,9.40
2018-12-17T12:01:29.745Z,9.50
2018-12-17T12:02:29.906Z,9.50
2018-12-17T12:03:29.744Z,9.50
2018-12-17T12:04:29.679Z,9.59
2018-12-17T12:05:29.741Z,9.62
2018-12-17T12:06:29.954Z,9.73
2018-12-17T12:07:29.667Z,9.77
2018-12-17T12:08:29.635Z,9.81
2018-12-17T12:09:29.627Z,9.72
2018-12-17T12:10:29.647Z,9.70
2018-12-17T12:11:29.688Z,9.55
2018-12-17T12:12:29.651Z,9.60
2018-12-17T12:13:29.644Z,9.63
2018-12-17T12:14:29.591Z,9.57
2018-12-17T12:15:29.558Z,9.57
2018-12-17T12:16:29.554Z,9.57
2018-12-17T12:17:29.620Z,9.52
2018-12-17T12:18:29.538Z,9.60
2018-12-17T12:19:29.536Z,9.60
2018-12-17T12:20:29.518Z,9.50
2018-12-17T12:21:29.561Z,9.57
2018-12-17T12:22:29.487Z,9.62
2018-12-17T12:23:29.523Z,9.57
2018-12-17T12:24:29.468Z,9.57
2018-12-17T12:25:29.444Z,9.51
2018-12-17T12:26:29.443Z,9.60
2018-12-17T12:27:29.426Z,9.47
2018-12-17T12:28:29.430Z,9.42
2018-12-17T12:29:29.467Z,9.42
2018-12-17T12:30:29.399Z,9.34
2018-12-17T12:31:29.456Z,9.41
2018-12-17T12:32:29.375Z,9.30
2018-12-17T12:33:29.513Z,9.41
2018-12-17T12:34:29.455Z,9.40
2018-12-17T12:35:29.336Z,9.42
2018-12-17T12:36:29.346Z,9.45
2018-12-17T12:37:29.352Z,9.47
2018-12-17T12:38:29.317Z,9.60
2018-12-17T12:39:29.313Z,9.63
2018-12-17T12:40:29.333Z,9.60
2018-12-17T12:41:29.284Z,9.62
2018-12-17T12:42:29.258Z,9.67
2018-12-17T12:43:29.306Z,9.77
2018-12-17T12:44:29.239Z,9.81
2018-12-17T12:45:29.403Z,9.87
2018-12-17T12:46:29.215Z,9.90
2018-12-17T12:47:29.211Z,9.94
2018-12-17T12:48:29.219Z,10.02
2018-12-17T12:49:29.178Z,9.98
2018-12-17T12:50:29.350Z,10.06
2018-12-17T12:51:32.594Z,10.16
2018-12-17T12:52:29.154Z,10.12
2018-12-17T12:53:29.144Z,10.14
2018-12-17T12:54:29.139Z,10.17
2018-12-17T12:55:29.113Z,10.14
2018-12-17T12:56:29.163Z,10.14
2018-12-17T12:57:29.149Z,10.24
2018-12-17T12:58:29.083Z,10.23
2018-12-17T12:59:29.186Z,10.36
2018-12-17T13:00:29.084Z,10.39
2018-12-17T13:01:29.138Z,10.41
2018-12-17T13:02:29.117Z,10.35
2018-12-17T13:03:29.039Z,10.41
2018-12-17T13:04:29.018Z,10.34
2018-12-17T13:05:29.009Z,10.31
2018-12-17T13:06:29.007Z,10.39
2018-12-17T13:07:29.062Z,10.41
2018-12-17T13:08:29.157Z,10.39
2018-12-17T13:09:29.026Z,10.48
2018-12-17T13:10:28.996Z,10.58
2018-12-17T13:11:28.936Z,10.65
2018-12-17T13:12:28.935Z,10.73
2018-12-17T13:13:29.065Z,10.93
2018-12-17T13:14:29.010Z,10.82
2018-12-17T13:15:28.915Z,10.95
2018-12-17T13:16:28.979Z,10.98
2018-12-17T13:17:28.880Z,10.93